Time;durP1;ratioP1;P1;durP2;ratioP2;P2;SDS_P1;SDS_P2;PMS_P1;PMS_P2;Temp;Humidity;BMP_temperature;BMP_pressure;BME280_temperature;BME280_humidity;BME280_pressure;Samples;Min_cycle;Max_cycle;Signal;HPM_P1;HPM_P2
2023/08/03 00:00:33;;;;;;;22.15;20.15;;;;;;;-145.63;60.04;38543.19;5042909;28;20033;-67
2023/08/03 00:02:59;;;;;;;22.67;20.38;;;;;;;-145.63;59.63;38464.97;5030670;28;20112;-66
2023/08/03 00:05:25;;;;;;;22.42;19.65;;;;;;;-145.63;59.67;38523.66;5030530;28;20036;-66
2023/08/03 00:07:51;;;;;;;22.95;20.73;;;;;;;-145.63;59.80;38494.31;5040188;28;20034;-67
2023/08/03 00:10:19;;;;;;;24.15;21.60;;;;;;;-145.63;59.79;38508.00;5023088;28;20061;-66
2023/08/03 00:12:46;;;;;;;26.05;23.35;;;;;;;-145.63;60.84;38578.41;5041639;28;20093;-66
2023/08/03 00:15:14;;;;;;;22.27;20.05;;;;;;;-145.63;60.50;38504.09;5028841;28;20022;-67
2023/08/03 00:17:40;;;;;;;22.33;20.02;;;;;;;-145.63;60.30;38509.97;5032276;28;20079;-67
2023/08/03 00:20:07;;;;;;;23.73;21.30;;;;;;;-145.63;60.60;38529.50;5036997;28;20195;-66
2023/08/03 00:22:33;;;;;;;22.83;20.52;;;;;;;-145.63;60.50;38562.75;5023042;28;20026;-69
2023/08/03 00:25:00;;;;;;;24.35;21.80;;;;;;;-145.63;60.40;38574.47;5042737;28;20067;-67
2023/08/03 00:27:27;;;;;;;24.88;20.98;;;;;;;-145.63;60.36;38513.88;5027096;28;20068;-67
2023/08/03 00:29:53;;;;;;;24.83;22.20;;;;;;;-145.63;60.33;38554.94;5030256;28;20036;-65
2023/08/03 00:32:19;;;;;;;27.92;23.95;;;;;;;-145.63;60.81;38535.38;5032729;28;20072;-66
2023/08/03 00:34:44;;;;;;;29.20;24.15;;;;;;;-145.63;60.89;38560.78;5030316;28;20034;-67
2023/08/03 00:37:11;;;;;;;30.00;25.27;;;;;;;-145.63;61.38;38578.41;5035001;28;20033;-67
2023/08/03 00:39:37;;;;;;;24.38;20.60;;;;;;;-145.63;60.64;38551.03;5027682;28;20030;-66
2023/08/03 00:42:04;;;;;;;23.35;20.92;;;;;;;-145.63;60.26;38554.94;5030631;28;20025;-66
2023/08/03 00:44:30;;;;;;;25.75;22.98;;;;;;;-145.63;60.32;38533.41;5042975;28;20083;-67
2023/08/03 00:46:55;;;;;;;26.75;23.95;;;;;;;-145.63;61.05;37935.13;5026407;28;20022;-66
2023/08/03 00:49:27;;;;;;;26.83;23.95;;;;;;;-145.63;60.86;38582.31;5033407;28;20029;-66
2023/08/03 00:51:53;;;;;;;;;;;;;;;-145.63;60.74;38570.56;5043452;28;20022;-66
2023/08/03 00:54:18;;;;;;;26.42;23.65;;;;;;;-145.63;60.79;38551.03;5026234;28;19976;-66
2023/08/03 00:56:44;;;;;;;25.75;23.00;;;;;;;-145.63;60.53;38543.19;5044352;28;20096;-66
2023/08/03 00:59:11;;;;;;;30.02;24.65;;;;;;;-145.63;60.94;38541.25;5055202;28;20274;-66
2023/08/03 01:01:38;;;;;;;24.08;21.55;;;;;;;-145.63;60.51;38564.72;5045799;28;20056;-66
2023/08/03 01:04:04;;;;;;;25.42;21.13;;;;;;;-145.63;60.15;38560.78;5030048;28;20111;-67
2023/08/03 01:06:29;;;;;;;25.73;22.83;;;;;;;-145.63;60.24;38572.53;5045864;28;20055;-66
2023/08/03 01:08:57;;;;;;;23.50;20.52;;;;;;;-145.63;59.83;38515.81;5025807;28;20227;-66
2023/08/03 01:11:23;;;;;;;24.85;21.65;;;;;;;-145.63;59.76;38539.28;5041425;28;20080;-66
2023/08/03 01:13:49;;;;;;;22.73;20.27;;;;;;;-145.63;59.60;38519.72;5035081;28;20026;-66
2023/08/03 01:16:15;;;;;;;26.70;21.70;;;;;;;-145.63;59.74;38511.91;5031848;28;20355;-67
2023/08/03 01:18:42;;;;;;;27.02;21.55;;;;;;;-145.63;59.94;38582.31;5044358;28;20032;-67
2023/08/03 01:21:11;;;;;;;21.45;19.23;;;;;;;-145.63;59.79;38566.66;5025683;28;20556;-66
2023/08/03 01:23:37;;;;;;;22.33;20.05;;;;;;;-145.63;59.86;38537.34;5042864;28;20061;-66
2023/08/03 01:26:02;;;;;;;26.75;23.92;;;;;;;-145.63;59.90;38568.63;5032948;28;20036;-66
2023/08/03 01:28:28;;;;;;;30.23;27.15;;;;;;;-145.63;60.16;38570.56;5033109;28;20222;-66
2023/08/03 01:30:54;;;;;;;27.33;24.45;;;;;;;-145.63;59.86;38549.06;5042281;28;20033;-66
2023/08/03 01:33:20;;;;;;;29.27;26.17;;;;;;;-145.63;59.91;38596.00;5025723;28;20022;-66
2023/08/03 01:35:46;;;;;;;36.13;28.83;;;;;;;-145.63;60.09;38584.25;5043660;28;20099;-67
2023/08/03 01:38:14;;;;;;;29.80;26.58;;;;;;;-145.63;60.03;38599.91;5031617;28;20364;-66
2023/08/03 01:40:43;;;;;;;27.67;24.27;;;;;;;-145.63;59.92;38594.03;5029377;28;20025;-65
2023/08/03 01:43:09;;;;;;;29.80;26.45;;;;;;;-145.63;59.95;38556.88;5039059;28;20144;-66
2023/08/03 01:45:35;;;;;;;26.83;23.05;;;;;;;-145.63;59.82;38558.84;5033202;28;20100;-66
2023/08/03 01:48:00;;;;;;;38.13;32.47;;;;;;;-145.63;60.71;38631.19;5045168;28;20025;-66
2023/08/03 01:50:26;;;;;;;33.33;29.60;;;;;;;-145.63;60.53;38615.53;5029576;28;20025;-66
2023/08/03 01:52:52;;;;;;;33.70;26.30;;;;;;;-145.63;60.04;38554.94;5035386;28;20025;-66
2023/08/03 01:55:17;;;;;;;25.67;23.10;;;;;;;-145.63;59.99;38594.03;5038841;28;20030;-66
2023/08/03 01:57:44;;;;;;;27.88;25.08;;;;;;;-145.63;60.02;38615.53;5026111;28;20034;-66
2023/08/03 02:00:10;;;;;;;27.55;24.85;;;;;;;-145.63;59.90;38566.66;5045094;28;20025;-67
2023/08/03 02:02:36;;;;;;;28.65;25.75;;;;;;;-145.63;60.09;38619.47;5035065;28;20064;-66
2023/08/03 02:05:02;;;;;;;30.60;26.45;;;;;;;-145.63;59.86;38590.13;5032742;28;20033;-66
2023/08/03 02:07:58;;;;;;;26.33;23.83;;;;;;;-145.63;59.59;38586.22;5032611;28;20021;-67
2023/08/03 02:10:24;;;;;;;31.90;28.52;;;;;;;-145.63;60.07;38621.41;5025236;28;20323;-65
2023/08/03 02:12:50;;;;;;;33.13;29.50;;;;;;;-145.63;60.75;38363.31;5024429;28;20239;-67
2023/08/03 02:15:17;;;;;;;31.60;27.55;;;;;;;-145.63;60.61;38644.88;5025078;28;20306;-65
2023/08/03 02:17:44;;;;;;;27.38;24.55;;;;;;;-145.63;60.55;38637.06;5042302;28;20083;-66
2023/08/03 02:20:10;;;;;;;29.40;24.27;;;;;;;-145.63;60.93;38633.16;5031731;28;20036;-66
2023/08/03 02:22:36;;;;;;;27.70;24.65;;;;;;;-145.63;60.59;38629.22;5032992;28;20021;-65
2023/08/03 02:25:02;;;;;;;25.00;21.13;;;;;;;-145.63;60.83;38631.19;5040683;28;20335;-66
2023/08/03 02:27:31;;;;;;;27.35;24.17;;;;;;;-145.63;60.88;38621.41;5023511;28;20192;-67
2023/08/03 02:29:57;;;;;;;26.00;21.50;;;;;;;-145.63;60.65;38646.84;5043629;28;20036;-66
2023/08/03 02:32:24;;;;;;;25.85;22.33;;;;;;;-145.63;60.67;38590.13;5044398;28;20036;-66
2023/08/03 02:34:50;;;;;;;24.85;21.42;;;;;;;-145.63;60.89;38666.38;5026470;28;20080;-66
2023/08/03 02:37:15;;;;;;;22.95;20.50;;;;;;;-145.63;60.69;38621.41;5029543;28;20029;-66
2023/08/03 02:39:41;;;;;;;23.95;21.40;;;;;;;-145.63;60.58;38615.53;5026812;28;20071;-65
2023/08/03 02:42:07;;;;;;;24.38;21.65;;;;;;;-145.63;60.21;38601.84;5027900;28;20026;-66
2023/08/03 02:44:32;;;;;;;24.65;21.65;;;;;;;-145.63;60.49;38599.91;5040038;28;20022;-66
2023/08/03 02:46:58;;;;;;;23.73;20.00;;;;;;;-145.63;60.17;38580.34;5032819;28;20028;-66
2023/08/03 02:49:23;;;;;;;23.35;20.90;;;;;;;-145.63;60.00;38603.81;5030239;28;20044;-66
2023/08/03 02:51:49;;;;;;;25.58;20.30;;;;;;;-145.63;60.15;38625.31;5042237;28;20053;-66
2023/08/03 02:54:15;;;;;;;22.65;20.30;;;;;;;-145.63;60.18;38621.41;5024165;28;20032;-66
2023/08/03 02:56:41;;;;;;;20.35;18.35;;;;;;;-145.63;59.80;38574.47;5037100;28;20240;-66
2023/08/03 02:59:06;;;;;;;21.42;17.63;;;;;;;-145.63;59.65;38582.31;5035931;28;20041;-66
2023/08/03 03:01:32;;;;;;;18.27;16.38;;;;;;;-145.63;59.36;38551.03;5036360;28;20033;-67
2023/08/03 03:03:58;;;;;;;22.80;19.00;;;;;;;-145.63;59.15;38597.94;5026669;28;20049;-66
2023/08/03 03:06:23;;;;;;;21.00;18.00;;;;;;;-145.63;59.11;38590.13;5043874;28;20306;-66
2023/08/03 03:08:49;;;;;;;20.60;18.50;;;;;;;-145.63;58.97;38396.53;5025828;28;20028;-66
2023/08/03 03:11:14;;;;;;;19.00;17.10;;;;;;;-145.63;58.95;38596.00;5036759;28;20037;-66
2023/08/03 03:13:40;;;;;;;18.05;15.73;;;;;;;-145.63;58.70;38580.34;5035019;28;20337;-66
2023/08/03 03:16:06;;;;;;;21.70;17.00;;;;;;;-145.63;59.26;38582.31;5026701;28;20033;-66
2023/08/03 03:18:31;;;;;;;18.20;16.27;;;;;;;-145.63;58.73;38596.00;5035809;28;20025;-66
2023/08/03 03:20:57;;;;;;;17.30;15.65;;;;;;;-145.63;58.04;38566.66;5024578;28;20030;-66
2023/08/03 03:23:22;;;;;;;20.05;16.23;;;;;;;-145.63;57.80;38543.19;5037533;28;20040;-66
2023/08/03 03:25:48;;;;;;;17.30;15.52;;;;;;;-145.63;57.95;38566.66;5033921;28;20179;-66
2023/08/03 03:28:14;;;;;;;18.60;16.35;;;;;;;-145.63;57.86;38515.81;5028251;28;20336;-66
2023/08/03 03:30:40;;;;;;;18.77;14.80;;;;;;;-145.63;57.65;38496.28;5043276;28;20071;-66
2023/08/03 03:33:05;;;;;;;15.70;13.63;;;;;;;-145.63;57.43;38484.53;5038340;28;20034;-67
2023/08/03 03:35:31;;;;;;;15.73;13.98;;;;;;;-145.63;57.32;38484.53;5027591;28;20034;-66
2023/08/03 03:37:56;;;;;;;16.45;13.43;;;;;;;-145.63;56.56;38468.91;5033621;28;20250;-66
2023/08/03 03:40:22;;;;;;;14.43;12.77;;;;;;;-145.63;56.03;38421.97;5039670;28;20227;-65
2023/08/03 03:42:48;;;;;;;15.43;13.48;;;;;;;-145.63;56.16;38439.56;5042221;28;20085;-66
2023/08/03 03:45:13;;;;;;;14.73;13.05;;;;;;;-145.63;56.45;38433.69;5023565;28;20026;-66
2023/08/03 03:47:39;;;;;;;15.45;12.60;;;;;;;-145.63;56.63;38435.66;5023515;28;20029;-66
2023/08/03 03:50:05;;;;;;;14.57;13.07;;;;;;;-145.63;56.84;38437.59;5034573;28;20037;-67
2023/08/03 03:52:31;;;;;;;16.38;14.52;;;;;;;-145.63;56.09;38410.22;5036474;28;20026;-65
2023/08/03 03:54:57;;;;;;;17.98;13.90;;;;;;;-145.63;56.24;38400.47;5023403;28;20349;-67
2023/08/03 03:57:22;;;;;;;15.48;13.88;;;;;;;-145.63;56.30;38382.88;5023428;28;20041;-66
2023/08/03 03:59:48;;;;;;;19.08;14.20;;;;;;;-145.63;55.70;38388.72;5040001;28;20025;-67
2023/08/03 04:02:13;;;;;;;18.27;15.48;;;;;;;-145.63;55.22;38355.50;5030368;28;20068;-67
2023/08/03 04:04:39;;;;;;;17.52;15.65;;;;;;;-145.63;54.88;38322.25;5030926;28;20021;-66
2023/08/03 04:07:05;;;;;;;22.05;16.30;;;;;;;-145.63;54.78;38277.28;5040018;28;20238;-67
2023/08/03 04:09:31;;;;;;;22.02;16.33;;;;;;;-145.63;54.12;38332.03;5026316;28;20057;-66
2023/08/03 04:11:56;;;;;;;18.58;16.17;;;;;;;-145.63;53.40;38363.31;5045235;28;20025;-66
2023/08/03 04:14:22;;;;;;;17.70;15.48;;;;;;;-145.63;52.46;38359.41;5033298;28;20072;-66
2023/08/03 04:16:48;;;;;;;19.55;15.52;;;;;;;-145.63;52.55;38371.13;5035580;28;20037;-67
2023/08/03 04:19:13;;;;;;;17.58;15.35;;;;;;;-145.63;52.69;38339.84;5046660;28;20033;-67
2023/08/03 04:21:39;;;;;;;17.88;14.75;;;;;;;-145.63;52.38;38369.19;5047184;28;20072;-66
2023/08/03 04:24:05;;;;;;;19.50;14.50;;;;;;;-145.63;52.27;38335.94;5042717;28;20022;-66
2023/08/03 04:26:30;;;;;;;17.45;14.77;;;;;;;-145.63;51.73;38318.34;5026918;28;20219;-66
2023/08/03 04:28:56;;;;;;;16.90;15.20;;;;;;;-145.63;51.74;38290.97;5033493;28;20033;-67
2023/08/03 04:31:21;;;;;;;17.10;14.77;;;;;;;-145.63;51.37;38275.31;5038517;28;20052;-67
2023/08/03 04:33:47;;;;;;;19.80;15.05;;;;;;;-145.63;51.35;38290.97;5032283;28;20021;-67
2023/08/03 04:36:13;;;;;;;14.35;12.27;;;;;;;-145.63;51.54;38230.34;5031095;28;20049;-65
2023/08/03 04:38:39;;;;;;;16.50;13.73;;;;;;;-145.63;51.50;38242.09;5030891;28;20064;-66
2023/08/03 04:41:04;;;;;;;17.75;12.38;;;;;;;-145.63;51.72;38247.94;5031078;28;20021;-66
2023/08/03 04:43:30;;;;;;;14.93;13.25;;;;;;;-145.63;51.96;38183.44;5041543;28;20025;-67
2023/08/03 04:45:56;;;;;;;16.52;13.32;;;;;;;-145.63;51.81;38201.03;5032958;28;20037;-66
2023/08/03 04:48:21;;;;;;;17.20;13.88;;;;;;;-145.63;51.60;38136.50;5046262;28;20021;-67
2023/08/03 04:50:47;;;;;;;17.63;13.23;;;;;;;-145.63;51.73;38175.59;5029336;28;20072;-67
2023/08/03 04:53:13;;;;;;;19.52;12.98;;;;;;;-145.63;51.60;38185.38;5029085;28;20029;-65
2023/08/03 04:55:40;;;;;;;17.40;12.30;;;;;;;-145.63;51.81;38167.78;5033382;28;20025;-66
2023/08/03 04:58:05;;;;;;;15.55;12.20;;;;;;;-145.63;51.22;38183.44;5043402;28;20025;-66
2023/08/03 05:00:31;;;;;;;14.27;11.55;;;;;;;-145.63;51.26;38120.88;5025932;28;20028;-66
2023/08/03 05:02:57;;;;;;;18.98;13.68;;;;;;;-145.63;50.73;38158.00;5033520;28;20085;-67
2023/08/03 05:05:23;;;;;;;15.85;12.40;;;;;;;-145.63;50.80;38138.47;5035160;28;20036;-65
2023/08/03 05:07:48;;;;;;;16.67;12.57;;;;;;;-145.63;50.47;38115.00;5034161;28;20021;-66
2023/08/03 05:10:14;;;;;;;17.80;11.82;;;;;;;-145.63;50.51;38079.81;5042164;28;20030;-66
2023/08/03 05:12:41;;;;;;;15.73;11.45;;;;;;;-145.63;50.07;38015.28;5026087;28;20040;-66
2023/08/03 05:15:08;;;;;;;20.23;12.52;;;;;;;-145.63;50.30;38042.66;5025713;28;20017;-66
2023/08/03 05:17:34;;;;;;;14.90;11.57;;;;;;;-145.63;50.12;37985.97;5040129;28;20367;-66
2023/08/03 05:19:59;;;;;;;13.85;12.35;;;;;;;-145.63;48.59;37933.16;5044061;28;20029;-67
2023/08/03 05:22:25;;;;;;;15.68;11.40;;;;;;;-145.63;48.77;37958.59;5040300;28;20021;-67
2023/08/03 05:24:51;;;;;;;14.23;10.93;;;;;;;-145.63;48.73;37925.34;5025228;28;20417;-66
2023/08/03 05:27:17;;;;;;;18.45;11.50;;;;;;;-145.63;49.19;37931.22;5025658;28;20026;-67
2023/08/03 05:29:43;;;;;;;19.00;12.05;;;;;;;-145.63;48.88;37960.53;5041019;28;20028;-66
2023/08/03 05:32:10;;;;;;;22.17;12.02;;;;;;;-145.63;48.67;37964.44;5045693;28;20377;-66
2023/08/03 05:34:36;;;;;;;23.63;12.85;;;;;;;-145.63;49.17;37980.09;5030329;28;20084;-66
2023/08/03 05:37:01;;;;;;;18.02;11.88;;;;;;;-145.63;49.39;37968.38;5041980;28;20041;-65
2023/08/03 05:39:27;;;;;;;18.40;12.57;;;;;;;-145.63;48.50;37942.94;5025903;28;20037;-66
2023/08/03 05:41:54;;;;;;;19.23;13.55;;;;;;;-145.63;47.69;37833.47;5027788;28;20026;-66
2023/08/03 05:44:20;;;;;;;16.83;13.43;;;;;;;-145.63;47.25;37794.38;5037615;28;20314;-66
2023/08/03 05:46:46;;;;;;;16.17;13.38;;;;;;;-145.63;46.98;37763.09;5037239;28;20033;-66
2023/08/03 05:49:14;;;;;;;18.75;14.35;;;;;;;-145.63;46.64;37813.91;5028053;28;20074;-65
2023/08/03 05:51:40;;;;;;;16.90;13.05;;;;;;;-145.63;46.92;37753.31;5045300;28;20029;-67
2023/08/03 05:54:08;;;;;;;18.60;13.70;;;;;;;-145.63;47.17;37753.31;5026254;28;20037;-65
2023/08/03 05:56:37;;;;;;;19.42;13.00;;;;;;;-145.63;46.69;37723.97;5039445;28;20068;-67
2023/08/03 05:59:03;;;;;;;16.63;13.52;;;;;;;-145.63;46.77;37708.34;5034781;28;20040;-66
2023/08/03 06:01:28;;;;;;;22.67;14.75;;;;;;;-145.63;46.09;37722.03;5030053;28;20017;-66
2023/08/03 06:03:54;;;;;;;18.52;14.18;;;;;;;-145.63;46.40;37694.66;5044092;28;20052;-66
2023/08/03 06:06:21;;;;;;;18.75;15.10;;;;;;;-145.63;46.41;37702.47;5026727;28;20074;-66
2023/08/03 06:08:53;;;;;;;18.77;16.05;;;;;;;-145.63;46.29;37675.09;5030978;28;20021;-66
2023/08/03 06:11:22;;;;;;;16.67;13.95;;;;;;;-145.63;46.09;37684.88;5034041;28;20303;-66
2023/08/03 06:13:48;;;;;;;20.15;15.88;;;;;;;-145.63;46.27;37649.69;5034338;28;20037;-67
2023/08/03 06:16:15;;;;;;;21.33;15.75;;;;;;;-145.63;45.81;37641.88;5034732;28;20519;-67
2023/08/03 06:18:46;;;;;;;20.13;15.38;;;;;;;-145.63;46.38;37626.25;5032644;28;20026;-67
2023/08/03 06:21:13;;;;;;;19.25;16.25;;;;;;;-145.63;46.12;37722.03;5034588;28;20321;-67
2023/08/03 06:23:40;;;;;;;20.90;15.45;;;;;;;-145.63;46.50;37655.56;5042957;28;20217;-67
2023/08/03 06:26:11;;;;;;;19.90;14.00;;;;;;;-145.63;46.35;37612.56;5034319;28;20017;-66
2023/08/03 06:28:37;;;;;;;19.65;13.57;;;;;;;-145.63;46.33;37561.72;5033447;28;20026;-67
2023/08/03 06:31:17;;;;;;;18.83;14.05;;;;;;;-145.63;45.86;37565.63;5033226;28;20037;-66
2023/08/03 06:33:44;;;;;;;19.40;13.15;;;;;;;-145.63;46.25;37559.78;5031991;28;20026;-67
2023/08/03 06:36:25;;;;;;;14.88;12.75;;;;;;;-145.63;45.79;37571.50;5032483;28;20071;-67
2023/08/03 06:38:51;;;;;;;16.92;11.65;;;;;;;-145.63;46.64;37557.81;5035957;28;20032;-66
2023/08/03 06:41:17;;;;;;;15.68;11.02;;;;;;;-145.63;46.08;37555.88;5034302;28;20230;-67
2023/08/03 06:43:44;;;;;;;15.63;10.60;;;;;;;-145.63;46.00;37497.22;5032117;28;20067;-67
2023/08/03 06:46:10;;;;;;;16.55;12.80;;;;;;;-145.63;45.58;37544.13;5034760;28;20045;-68
2023/08/03 06:48:36;;;;;;;13.40;10.95;;;;;;;-145.63;45.79;37510.91;5032215;28;20018;-67
2023/08/03 06:51:02;;;;;;;16.08;11.05;;;;;;;-145.63;45.12;37487.44;5031595;28;20104;-68
2023/08/03 06:53:29;;;;;;;15.20;10.63;;;;;;;-145.63;45.11;37454.22;5034447;28;20076;-68
2023/08/03 06:55:55;;;;;;;12.48;10.63;;;;;;;-145.63;45.05;37424.88;5034310;28;20024;-67
2023/08/03 06:58:21;;;;;;;14.98;11.27;;;;;;;-145.63;45.73;37448.34;5031423;28;20026;-67
2023/08/03 07:00:47;;;;;;;14.38;12.00;;;;;;;-145.63;44.54;37454.22;5035177;28;20085;-66
2023/08/03 07:03:13;;;;;;;13.68;9.35;;;;;;;-145.63;44.82;37385.78;5033580;28;20101;-66
2023/08/03 07:05:39;;;;;;;10.02;7.93;;;;;;;-145.63;44.31;37370.16;5036665;28;20034;-67
2023/08/03 07:08:05;;;;;;;12.02;9.55;;;;;;;-145.63;43.96;37405.34;5032751;28;20093;-67
2023/08/03 07:10:32;;;;;;;15.55;9.18;;;;;;;-145.63;44.25;37352.56;5032965;28;20033;-68
2023/08/03 07:12:57;;;;;;;15.15;10.10;;;;;;;-145.63;43.95;37323.25;5033768;28;20029;-67
2023/08/03 07:15:23;;;;;;;12.30;8.60;;;;;;;-145.63;44.08;37374.06;5033540;28;20347;-66
2023/08/03 07:17:49;;;;;;;12.43;9.02;;;;;;;-145.63;43.59;37393.59;5040357;28;20060;-66
2023/08/03 07:20:14;;;;;;;9.60;8.60;;;;;;;-145.63;44.34;37364.28;5030142;28;20346;-69
2023/08/03 07:22:40;;;;;;;14.13;9.63;;;;;;;-145.63;44.13;37315.41;5030788;28;20333;-67
2023/08/03 07:25:06;;;;;;;10.60;8.18;;;;;;;-145.63;44.67;37305.66;5035351;28;20028;-67
2023/08/03 07:27:32;;;;;;;14.10;8.75;;;;;;;-145.63;44.31;37284.16;5037868;28;20089;-67
2023/08/03 07:29:59;;;;;;;14.07;8.60;;;;;;;-145.63;43.29;37336.91;5026600;28;20045;-68
2023/08/03 07:32:24;;;;;;;11.85;8.30;;;;;;;-145.63;42.29;37266.56;5023844;28;20041;-68
2023/08/03 07:34:51;;;;;;;9.90;7.93;;;;;;;-145.63;43.53;37272.41;5028737;28;20044;-67
2023/08/03 07:37:16;;;;;;;10.75;8.32;;;;;;;-145.63;42.76;37235.28;5034680;28;20076;-67
2023/08/03 07:39:42;;;;;;;12.25;9.05;;;;;;;-145.63;42.98;37272.41;5043347;28;20025;-68
2023/08/03 07:42:08;;;;;;;11.90;8.18;;;;;;;-145.63;42.68;37178.59;5025734;28;20025;-66
2023/08/03 07:44:33;;;;;;;10.70;7.82;;;;;;;-145.63;43.11;37219.63;5024428;28;20310;-68
2023/08/03 07:46:59;;;;;;;12.73;8.07;;;;;;;-145.63;43.17;37100.41;5028187;28;20033;-67
2023/08/03 07:49:26;;;;;;;11.65;7.68;;;;;;;-145.63;42.13;37178.59;5029779;28;20041;-68
2023/08/03 07:51:51;;;;;;;9.68;7.50;;;;;;;-145.63;42.43;37116.03;5033806;28;20092;-68
2023/08/03 07:54:17;;;;;;;10.35;8.27;;;;;;;-145.63;42.07;37073.03;5032481;28;20014;-67
2023/08/03 07:56:43;;;;;;;12.23;7.93;;;;;;;-145.63;41.23;37096.50;5048517;28;20024;-68
2023/08/03 07:59:10;;;;;;;13.68;8.23;;;;;;;-145.63;42.01;37096.50;5032963;28;20041;-67
2023/08/03 08:01:37;;;;;;;8.30;7.10;;;;;;;-145.63;41.59;37080.84;5032613;28;20013;-67
2023/08/03 08:04:03;;;;;;;13.82;7.13;;;;;;;-145.63;41.66;37037.84;5032899;28;20052;-66
2023/08/03 08:06:29;;;;;;;10.05;7.95;;;;;;;-145.63;41.59;37061.31;5031418;28;20269;-67
2023/08/03 08:08:54;;;;;;;12.80;8.23;;;;;;;-145.63;41.85;37061.31;5036424;28;20021;-67
2023/08/03 08:11:20;;;;;;;8.30;7.47;;;;;;;-145.63;41.19;36981.16;5029628;28;20353;-68
2023/08/03 08:13:46;;;;;;;13.10;7.30;;;;;;;-145.63;40.50;37014.41;5028509;28;20032;-66
2023/08/03 08:16:14;;;;;;;12.20;8.02;;;;;;;-145.63;40.55;37080.84;5032094;28;20026;-67
2023/08/03 08:18:39;;;;;;;13.15;8.02;;;;;;;-145.63;41.18;36981.16;5030546;28;20073;-68
2023/08/03 08:21:11;;;;;;;10.15;8.20;;;;;;;-145.63;40.63;36959.66;5032975;28;20030;-68
2023/08/03 08:23:37;;;;;;;;;;;;;;;-145.63;40.47;36965.53;5031999;28;20356;-67
2023/08/03 08:26:13;;;;;;;15.27;8.45;;;;;;;-145.63;40.03;36973.34;5031930;28;19913;-68
2023/08/03 08:28:40;;;;;;;11.70;7.40;;;;;;;-145.63;40.09;36887.34;5029401;28;20072;-67
2023/08/03 08:31:06;;;;;;;8.85;7.53;;;;;;;-145.63;40.52;36893.22;5027474;28;20033;-66
2023/08/03 08:33:31;;;;;;;10.55;7.70;;;;;;;-145.63;40.21;36996.81;5030738;28;20319;-67
2023/08/03 08:35:57;;;;;;;12.80;7.00;;;;;;;-145.63;39.96;36963.56;5037297;28;20037;-67
2023/08/03 08:38:23;;;;;;;8.52;6.82;;;;;;;-145.63;39.64;36983.13;5027049;28;20045;-66
2023/08/03 08:40:48;;;;;;;16.88;7.30;;;;;;;-145.63;40.28;36908.84;5023706;28;20026;-67
2023/08/03 08:43:17;;;;;;;11.13;6.97;;;;;;;-145.63;40.01;36963.56;5024373;28;20026;-67
2023/08/03 08:45:42;;;;;;;10.18;7.25;;;;;;;-145.63;40.02;36924.50;5041567;28;20310;-68
2023/08/03 08:48:08;;;;;;;11.68;6.63;;;;;;;-145.63;39.72;36959.66;5038191;28;20080;-67
2023/08/03 08:50:34;;;;;;;8.00;6.68;;;;;;;-145.63;40.09;36875.63;5022692;28;20037;-67
2023/08/03 08:52:59;;;;;;;9.00;6.72;;;;;;;-145.63;39.59;36842.41;5022413;28;20370;-67
2023/08/03 08:55:28;;;;;;;7.15;6.22;;;;;;;-145.63;39.18;36953.81;5030694;28;20041;-67
2023/08/03 08:57:54;;;;;;;8.75;6.68;;;;;;;-145.63;38.16;36799.41;5045982;28;20034;-67
2023/08/03 09:00:23;;;;;;;8.00;6.03;;;;;;;-145.63;38.45;36752.50;5041627;28;20341;-67
2023/08/03 09:02:49;;;;;;;10.13;6.75;;;;;;;-145.63;39.00;36662.59;5026077;28;20330;-66
2023/08/03 09:05:18;;;;;;;8.32;5.57;;;;;;;-145.63;37.88;36713.41;5035974;28;20041;-67
2023/08/03 09:07:43;;;;;;;11.30;6.13;;;;;;;-145.63;37.99;36658.69;5040236;28;20025;-67
2023/08/03 09:10:10;;;;;;;10.52;5.88;;;;;;;-145.63;37.43;36605.91;5026902;28;20109;-67
2023/08/03 09:12:39;;;;;;;6.35;5.50;;;;;;;-145.63;37.21;36627.41;5045738;28;20036;-66
2023/08/03 09:15:05;;;;;;;7.60;6.03;;;;;;;-145.63;37.35;36619.59;5030717;28;20026;-67
2023/08/03 09:17:32;;;;;;;7.90;6.60;;;;;;;-145.63;37.66;36621.53;5034861;28;20120;-67
2023/08/03 09:19:58;;;;;;;7.45;6.07;;;;;;;-145.63;38.14;36713.41;5033605;28;20029;-68
2023/08/03 09:22:25;;;;;;;9.02;6.80;;;;;;;-145.63;38.31;36731.00;5033937;28;20029;-66
2023/08/03 09:25:08;;;;;;;7.75;5.78;;;;;;;-145.63;36.73;36621.53;5032444;28;20022;-67
2023/08/03 09:27:36;;;;;;;7.93;5.80;;;;;;;-145.63;37.66;36658.69;5032078;28;20036;-67
2023/08/03 09:30:03;;;;;;;7.40;6.07;;;;;;;-145.63;38.10;36629.34;5036518;28;20064;-66
2023/08/03 09:32:34;;;;;;;8.98;6.25;;;;;;;-145.63;37.37;36650.84;5036215;28;20120;-66
2023/08/03 09:35:15;;;;;;;7.85;6.18;;;;;;;-145.63;37.73;36688.00;5032522;28;20071;-66
2023/08/03 09:37:41;;;;;;;8.07;5.70;;;;;;;-145.63;37.01;36531.63;5033046;28;20030;-66
2023/08/03 09:40:07;;;;;;;8.27;6.00;;;;;;;-145.63;37.97;36502.31;5031385;28;20029;-67
2023/08/03 09:42:35;;;;;;;9.18;6.57;;;;;;;-145.63;37.52;36463.25;5037285;28;20022;-67
2023/08/03 09:45:02;;;;;;;7.43;6.13;;;;;;;-145.63;36.45;36537.50;5033986;28;20026;-67
2023/08/03 09:47:34;;;;;;;;;;;;;;;-145.63;36.88;36508.19;5036635;28;20029;-66
2023/08/03 09:50:00;;;;;;;6.13;5.40;;;;;;;-145.63;36.74;36486.69;5034572;28;19905;-67
2023/08/03 09:52:28;;;;;;;9.32;7.10;;;;;;;-145.63;36.57;36351.84;5035283;28;20018;-67
2023/08/03 09:55:13;;;;;;;11.30;6.57;;;;;;;-145.63;36.78;36473.00;5035047;28;20093;-67
2023/08/03 09:57:47;;;;;;;7.85;6.25;;;;;;;-145.63;37.33;36541.41;5035516;28;20033;-67
2023/08/03 10:00:13;;;;;;;6.82;6.05;;;;;;;-145.63;36.69;36459.31;5034604;28;20021;-67
2023/08/03 10:02:55;;;;;;;10.32;5.72;;;;;;;-145.63;36.39;36564.88;5033521;28;20104;-68
2023/08/03 10:05:24;;;;;;;7.90;5.93;;;;;;;-145.63;36.64;36584.41;5034973;28;20279;-68
2023/08/03 10:07:58;;;;;;;9.82;6.80;;;;;;;-145.63;36.46;36508.19;5032149;28;20037;-68
2023/08/03 10:10:27;;;;;;;6.15;5.53;;;;;;;-145.63;36.89;36549.22;5049809;28;20087;-66
2023/08/03 10:13:02;;;;;;;6.85;5.70;;;;;;;-145.63;36.07;36353.78;5035073;28;20025;-68
2023/08/03 10:15:28;;;;;;;6.93;6.10;;;;;;;-145.63;36.37;36486.69;5034155;28;20044;-67
2023/08/03 10:17:54;;;;;;;7.15;6.30;;;;;;;-145.63;37.25;36492.56;5032703;28;20026;-69
2023/08/03 10:20:21;;;;;;;12.48;5.88;;;;;;;-145.63;36.19;36523.81;5034225;28;20026;-70
2023/08/03 10:23:08;;;;;;;7.53;5.85;;;;;;;-145.63;35.40;36529.69;5035174;28;20029;-71
2023/08/03 10:25:59;;;;;;;7.00;6.10;;;;;;;-145.63;36.43;36580.50;5045432;28;20049;-71
2023/08/03 10:28:26;;;;;;;6.90;6.25;;;;;;;-145.63;36.28;36519.91;5044391;28;20225;-73
2023/08/03 10:31:12;;;;;;;9.00;6.22;;;;;;;-145.63;36.24;36521.88;5026756;28;20044;-71
2023/08/03 10:33:47;;;;;;;7.65;6.25;;;;;;;-145.63;35.97;36490.59;5027575;28;20018;-72
2023/08/03 10:36:33;;;;;;;11.85;9.00;;;;;;;-145.63;35.42;36482.78;5039895;28;20028;-72
2023/08/03 10:39:09;;;;;;;12.40;6.05;;;;;;;-145.63;34.95;36474.97;5038569;28;20041;-72
2023/08/03 10:41:42;;;;;;;8.18;5.50;;;;;;;-145.63;34.87;36439.78;5043959;28;20022;-71
2023/08/03 10:44:12;;;;;;;8.35;6.18;;;;;;;-145.63;34.62;36439.78;5036510;28;20049;-75
2023/08/03 10:46:47;;;;;;;8.30;6.47;;;;;;;-145.63;34.49;36473.00;5028173;28;20060;-68
2023/08/03 10:49:27;;;;;;;8.10;6.00;;;;;;;-145.63;34.72;36420.25;5043411;28;20125;-72
2023/08/03 10:51:55;;;;;;;7.20;5.70;;;;;;;-145.63;34.81;36428.06;5024294;28;20030;-70
2023/08/03 10:54:31;;;;;;;7.70;5.57;;;;;;;-145.63;34.47;36474.97;5041052;28;20075;-71
2023/08/03 10:57:06;;;;;;;6.03;5.50;;;;;;;-145.63;34.54;36353.78;5029395;28;20049;-70
2023/08/03 10:59:36;;;;;;;7.78;5.68;;;;;;;-145.63;35.18;36361.63;5029908;28;20022;-70
2023/08/03 11:02:31;;;;;;;6.18;5.60;;;;;;;-145.63;34.38;36381.16;5034887;28;20099;-69
2023/08/03 11:05:00;;;;;;;8.02;6.05;;;;;;;-145.63;33.36;35933.66;5033546;28;20041;-70
2023/08/03 11:07:35;;;;;;;8.73;6.10;;;;;;;-145.63;33.85;36373.34;5032507;28;20048;-71